sensor_id;sensor_type;location;lat;lon;timestamp;P1;durP1;ratioP1;P2;durP2;ratioP2
59790;SDS011;47431;51.640;5.554;2023-02-28T00:00:17;17.40;;;9.97;;
59790;SDS011;47431;51.640;5.554;2023-02-28T00:02:43;14.57;;;9.23;;
59790;SDS011;47431;51.640;5.554;2023-02-28T00:05:09;15.10;;;9.07;;
59790;SDS011;47431;51.640;5.554;2023-02-28T00:07:34;15.40;;;9.77;;
59790;SDS011;47431;51.640;5.554;2023-02-28T00:10:00;13.10;;;9.37;;
59790;SDS011;47431;51.640;5.554;2023-02-28T00:12:25;27.73;;;9.87;;
59790;SDS011;47431;51.640;5.554;2023-02-28T00:14:51;14.80;;;8.97;;
59790;SDS011;47431;51.640;5.554;2023-02-28T00:17:16;15.93;;;9.53;;
59790;SDS011;47431;51.640;5.554;2023-02-28T00:19:42;16.37;;;9.80;;
59790;SDS011;47431;51.640;5.554;2023-02-28T00:22:08;15.60;;;10.13;;
59790;SDS011;47431;51.640;5.554;2023-02-28T00:24:33;17.70;;;8.87;;
59790;SDS011;47431;51.640;5.554;2023-02-28T00:26:58;16.67;;;8.03;;
59790;SDS011;47431;51.640;5.554;2023-02-28T00:29:23;12.20;;;8.43;;
59790;SDS011;47431;51.640;5.554;2023-02-28T00:31:49;13.07;;;9.10;;
59790;SDS011;47431;51.640;5.554;2023-02-28T00:34:14;15.57;;;10.27;;
59790;SDS011;47431;51.640;5.554;2023-02-28T00:36:39;14.47;;;9.43;;
59790;SDS011;47431;51.640;5.554;2023-02-28T00:39:08;14.67;;;9.93;;
59790;SDS011;47431;51.640;5.554;2023-02-28T00:41:33;16.60;;;8.83;;
59790;SDS011;47431;51.640;5.554;2023-02-28T00:43:59;12.60;;;8.27;;
59790;SDS011;47431;51.640;5.554;2023-02-28T00:46:24;16.23;;;9.70;;
59790;SDS011;47431;51.640;5.554;2023-02-28T00:48:49;12.60;;;8.73;;
59790;SDS011;47431;51.640;5.554;2023-02-28T00:51:14;16.27;;;8.90;;
59790;SDS011;47431;51.640;5.554;2023-02-28T00:53:40;16.97;;;10.03;;
59790;SDS011;47431;51.640;5.554;2023-02-28T00:56:05;15.30;;;9.47;;
59790;SDS011;47431;51.640;5.554;2023-02-28T00:58:30;13.80;;;9.23;;
59790;SDS011;47431;51.640;5.554;2023-02-28T01:00:55;16.63;;;9.73;;
59790;SDS011;47431;51.640;5.554;2023-02-28T01:03:21;17.23;;;11.80;;
59790;SDS011;47431;51.640;5.554;2023-02-28T01:05:47;15.97;;;9.97;;
59790;SDS011;47431;51.640;5.554;2023-02-28T01:08:13;18.70;;;9.07;;
59790;SDS011;47431;51.640;5.554;2023-02-28T01:10:38;15.03;;;9.57;;
59790;SDS011;47431;51.640;5.554;2023-02-28T01:13:04;19.03;;;10.83;;
59790;SDS011;47431;51.640;5.554;2023-02-28T01:15:29;18.37;;;8.93;;
59790;SDS011;47431;51.640;5.554;2023-02-28T01:17:54;12.97;;;8.60;;
59790;SDS011;47431;51.640;5.554;2023-02-28T01:20:19;13.87;;;7.80;;
59790;SDS011;47431;51.640;5.554;2023-02-28T01:22:45;13.47;;;9.70;;
59790;SDS011;47431;51.640;5.554;2023-02-28T01:25:11;13.97;;;8.37;;
59790;SDS011;47431;51.640;5.554;2023-02-28T01:27:36;11.63;;;8.40;;
59790;SDS011;47431;51.640;5.554;2023-02-28T01:30:04;14.90;;;9.73;;
59790;SDS011;47431;51.640;5.554;2023-02-28T01:32:30;13.40;;;8.97;;
59790;SDS011;47431;51.640;5.554;2023-02-28T01:34:55;16.33;;;8.77;;
59790;SDS011;47431;51.640;5.554;2023-02-28T01:37:20;12.83;;;8.27;;
59790;SDS011;47431;51.640;5.554;2023-02-28T01:39:45;15.23;;;9.60;;
59790;SDS011;47431;51.640;5.554;2023-02-28T01:42:11;18.03;;;11.00;;
59790;SDS011;47431;51.640;5.554;2023-02-28T01:47:20;14.50;;;9.30;;
59790;SDS011;47431;51.640;5.554;2023-02-28T01:49:46;19.60;;;10.67;;
59790;SDS011;47431;51.640;5.554;2023-02-28T01:52:12;14.20;;;9.03;;
59790;SDS011;47431;51.640;5.554;2023-02-28T01:54:43;19.27;;;11.17;;
59790;SDS011;47431;51.640;5.554;2023-02-28T01:57:11;17.77;;;10.97;;
59790;SDS011;47431;51.640;5.554;2023-02-28T01:59:40;14.93;;;10.23;;
59790;SDS011;47431;51.640;5.554;2023-02-28T02:02:25;15.00;;;9.80;;
59790;SDS011;47431;51.640;5.554;2023-02-28T02:04:55;19.20;;;10.27;;
59790;SDS011;47431;51.640;5.554;2023-02-28T02:07:21;18.20;;;9.93;;
59790;SDS011;47431;51.640;5.554;2023-02-28T02:09:48;18.37;;;9.93;;
59790;SDS011;47431;51.640;5.554;2023-02-28T02:15:01;16.40;;;10.27;;
59790;SDS011;47431;51.640;5.554;2023-02-28T02:17:33;15.53;;;9.83;;
59790;SDS011;47431;51.640;5.554;2023-02-28T02:27:20;15.00;;;9.63;;
59790;SDS011;47431;51.640;5.554;2023-02-28T02:37:25;14.30;;;9.67;;
59790;SDS011;47431;51.640;5.554;2023-02-28T02:40:16;13.03;;;9.17;;
59790;SDS011;47431;51.640;5.554;2023-02-28T02:42:50;11.63;;;8.30;;
59790;SDS011;47431;51.640;5.554;2023-02-28T02:47:41;15.17;;;9.47;;
59790;SDS011;47431;51.640;5.554;2023-02-28T02:50:08;20.30;;;10.13;;
59790;SDS011;47431;51.640;5.554;2023-02-28T02:52:38;16.17;;;9.73;;
59790;SDS011;47431;51.640;5.554;2023-02-28T02:55:05;17.23;;;8.70;;
59790;SDS011;47431;51.640;5.554;2023-02-28T02:57:53;11.20;;;7.93;;
59790;SDS011;47431;51.640;5.554;2023-02-28T03:00:17;14.40;;;8.13;;
59790;SDS011;47431;51.640;5.554;2023-02-28T03:02:44;12.50;;;7.97;;
59790;SDS011;47431;51.640;5.554;2023-02-28T03:05:34;12.30;;;8.40;;
59790;SDS011;47431;51.640;5.554;2023-02-28T03:07:55;19.37;;;10.03;;
59790;SDS011;47431;51.640;5.554;2023-02-28T03:10:36;14.50;;;8.80;;
59790;SDS011;47431;51.640;5.554;2023-02-28T03:13:21;12.90;;;9.40;;
59790;SDS011;47431;51.640;5.554;2023-02-28T03:24:06;13.83;;;8.53;;
59790;SDS011;47431;51.640;5.554;2023-02-28T03:26:34;11.37;;;7.97;;
59790;SDS011;47431;51.640;5.554;2023-02-28T03:29:15;18.10;;;8.97;;
59790;SDS011;47431;51.640;5.554;2023-02-28T03:31:47;14.20;;;9.30;;
59790;SDS011;47431;51.640;5.554;2023-02-28T03:34:20;17.02;;;8.90;;
59790;SDS011;47431;51.640;5.554;2023-02-28T03:36:48;12.30;;;8.50;;
59790;SDS011;47431;51.640;5.554;2023-02-28T03:39:16;17.40;;;8.90;;
59790;SDS011;47431;51.640;5.554;2023-02-28T03:41:43;10.40;;;7.63;;
59790;SDS011;47431;51.640;5.554;2023-02-28T03:44:14;12.07;;;7.83;;
59790;SDS011;47431;51.640;5.554;2023-02-28T03:46:42;13.93;;;8.23;;
59790;SDS011;47431;51.640;5.554;2023-02-28T03:49:11;11.73;;;8.00;;
59790;SDS011;47431;51.640;5.554;2023-02-28T03:51:38;22.80;;;8.77;;
59790;SDS011;47431;51.640;5.554;2023-02-28T03:54:08;12.60;;;7.97;;
59790;SDS011;47431;51.640;5.554;2023-02-28T03:56:38;13.97;;;8.27;;
59790;SDS011;47431;51.640;5.554;2023-02-28T04:01:43;12.07;;;8.63;;
59790;SDS011;47431;51.640;5.554;2023-02-28T04:04:09;15.40;;;8.87;;
59790;SDS011;47431;51.640;5.554;2023-02-28T04:06:35;12.70;;;7.83;;
59790;SDS011;47431;51.640;5.554;2023-02-28T04:09:01;17.70;;;8.53;;
59790;SDS011;47431;51.640;5.554;2023-02-28T04:11:32;13.07;;;8.20;;
59790;SDS011;47431;51.640;5.554;2023-02-28T04:13:58;12.33;;;8.37;;
59790;SDS011;47431;51.640;5.554;2023-02-28T04:16:23;13.23;;;9.27;;
59790;SDS011;47431;51.640;5.554;2023-02-28T04:18:48;9.93;;;7.60;;
59790;SDS011;47431;51.640;5.554;2023-02-28T04:21:13;16.00;;;7.97;;
59790;SDS011;47431;51.640;5.554;2023-02-28T04:23:39;11.03;;;7.50;;
59790;SDS011;47431;51.640;5.554;2023-02-28T04:26:04;14.87;;;8.83;;
59790;SDS011;47431;51.640;5.554;2023-02-28T04:28:30;12.20;;;7.83;;
59790;SDS011;47431;51.640;5.554;2023-02-28T04:30:56;11.10;;;7.37;;
59790;SDS011;47431;51.640;5.554;2023-02-28T04:33:22;11.83;;;8.17;;
59790;SDS011;47431;51.640;5.554;2023-02-28T04:35:47;15.57;;;8.73;;
59790;SDS011;47431;51.640;5.554;2023-02-28T04:38:12;10.40;;;7.10;;
59790;SDS011;47431;51.640;5.554;2023-02-28T04:40:38;11.93;;;7.90;;
59790;SDS011;47431;51.640;5.554;2023-02-28T04:43:03;13.30;;;8.07;;
59790;SDS011;47431;51.640;5.554;2023-02-28T04:45:28;12.23;;;8.00;;
59790;SDS011;47431;51.640;5.554;2023-02-28T04:47:57;15.33;;;8.43;;
59790;SDS011;47431;51.640;5.554;2023-02-28T04:50:22;11.10;;;7.73;;
59790;SDS011;47431;51.640;5.554;2023-02-28T04:52:47;11.83;;;7.90;;
59790;SDS011;47431;51.640;5.554;2023-02-28T04:55:12;12.77;;;7.67;;
59790;SDS011;47431;51.640;5.554;2023-02-28T04:57:38;14.07;;;9.07;;
59790;SDS011;47431;51.640;5.554;2023-02-28T05:00:03;10.53;;;7.80;;
59790;SDS011;47431;51.640;5.554;2023-02-28T05:02:33;10.60;;;6.87;;
59790;SDS011;47431;51.640;5.554;2023-02-28T05:04:59;12.47;;;8.17;;
59790;SDS011;47431;51.640;5.554;2023-02-28T05:07:25;12.27;;;7.63;;
59790;SDS011;47431;51.640;5.554;2023-02-28T05:09:50;10.57;;;7.27;;
59790;SDS011;47431;51.640;5.554;2023-02-28T05:12:15;16.47;;;8.40;;
59790;SDS011;47431;51.640;5.554;2023-02-28T05:14:40;9.50;;;7.47;;
59790;SDS011;47431;51.640;5.554;2023-02-28T05:17:06;12.83;;;8.37;;
59790;SDS011;47431;51.640;5.554;2023-02-28T05:19:31;11.33;;;7.43;;
59790;SDS011;47431;51.640;5.554;2023-02-28T05:21:56;11.33;;;7.67;;
59790;SDS011;47431;51.640;5.554;2023-02-28T05:24:21;11.40;;;7.90;;
59790;SDS011;47431;51.640;5.554;2023-02-28T05:26:51;13.33;;;8.67;;
59790;SDS011;47431;51.640;5.554;2023-02-28T05:29:17;11.93;;;7.77;;
59790;SDS011;47431;51.640;5.554;2023-02-28T05:31:42;11.57;;;7.77;;
59790;SDS011;47431;51.640;5.554;2023-02-28T05:34:08;13.97;;;8.20;;
59790;SDS011;47431;51.640;5.554;2023-02-28T05:36:36;12.03;;;7.23;;
59790;SDS011;47431;51.640;5.554;2023-02-28T05:39:01;11.00;;;6.63;;
59790;SDS011;47431;51.640;5.554;2023-02-28T05:41:28;12.60;;;7.00;;
59790;SDS011;47431;51.640;5.554;2023-02-28T05:43:53;11.33;;;6.90;;
59790;SDS011;47431;51.640;5.554;2023-02-28T05:46:18;13.13;;;7.60;;
59790;SDS011;47431;51.640;5.554;2023-02-28T05:48:45;10.33;;;7.40;;
59790;SDS011;47431;51.640;5.554;2023-02-28T05:51:11;15.57;;;7.83;;
59790;SDS011;47431;51.640;5.554;2023-02-28T05:53:36;10.90;;;7.43;;
59790;SDS011;47431;51.640;5.554;2023-02-28T05:56:01;10.97;;;7.00;;
59790;SDS011;47431;51.640;5.554;2023-02-28T05:58:27;10.07;;;6.77;;
59790;SDS011;47431;51.640;5.554;2023-02-28T06:00:55;8.87;;;6.30;;
59790;SDS011;47431;51.640;5.554;2023-02-28T06:03:21;10.87;;;7.83;;
59790;SDS011;47431;51.640;5.554;2023-02-28T06:05:46;13.67;;;7.13;;
59790;SDS011;47431;51.640;5.554;2023-02-28T06:08:12;11.43;;;7.00;;
59790;SDS011;47431;51.640;5.554;2023-02-28T06:10:37;12.10;;;7.47;;
59790;SDS011;47431;51.640;5.554;2023-02-28T06:13:03;14.13;;;7.70;;
59790;SDS011;47431;51.640;5.554;2023-02-28T06:15:28;11.67;;;7.23;;
59790;SDS011;47431;51.640;5.554;2023-02-28T06:17:54;8.97;;;6.77;;
59790;SDS011;47431;51.640;5.554;2023-02-28T06:20:21;14.00;;;7.37;;
59790;SDS011;47431;51.640;5.554;2023-02-28T06:22:47;18.90;;;7.87;;
59790;SDS011;47431;51.640;5.554;2023-02-28T06:25:12;11.23;;;6.40;;
59790;SDS011;47431;51.640;5.554;2023-02-28T06:27:37;11.40;;;8.47;;
59790;SDS011;47431;51.640;5.554;2023-02-28T06:30:03;15.00;;;6.87;;
59790;SDS011;47431;51.640;5.554;2023-02-28T06:32:28;11.67;;;7.80;;
59790;SDS011;47431;51.640;5.554;2023-02-28T06:34:54;10.37;;;7.33;;
59790;SDS011;47431;51.640;5.554;2023-02-28T06:37:19;21.37;;;8.40;;
59790;SDS011;47431;51.640;5.554;2023-02-28T06:39:45;11.93;;;7.87;;
59790;SDS011;47431;51.640;5.554;2023-02-28T06:42:10;11.97;;;7.47;;
59790;SDS011;47431;51.640;5.554;2023-02-28T06:44:35;11.73;;;7.80;;
59790;SDS011;47431;51.640;5.554;2023-02-28T06:47:01;11.73;;;7.53;;
59790;SDS011;47431;51.640;5.554;2023-02-28T06:49:33;27.33;;;8.93;;
59790;SDS011;47431;51.640;5.554;2023-02-28T06:51:58;14.43;;;8.57;;
59790;SDS011;47431;51.640;5.554;2023-02-28T06:54:24;20.80;;;9.13;;
59790;SDS011;47431;51.640;5.554;2023-02-28T06:56:49;12.40;;;7.63;;
59790;SDS011;47431;51.640;5.554;2023-02-28T06:59:14;12.63;;;7.40;;
59790;SDS011;47431;51.640;5.554;2023-02-28T07:01:40;11.13;;;8.10;;
59790;SDS011;47431;51.640;5.554;2023-02-28T07:04:05;12.60;;;9.13;;
59790;SDS011;47431;51.640;5.554;2023-02-28T07:06:31;14.30;;;8.30;;
59790;SDS011;47431;51.640;5.554;2023-02-28T07:08:56;14.70;;;7.67;;
59790;SDS011;47431;51.640;5.554;2023-02-28T07:11:22;14.33;;;8.60;;
59790;SDS011;47431;51.640;5.554;2023-02-28T07:13:50;11.63;;;7.77;;
59790;SDS011;47431;51.640;5.554;2023-02-28T07:16:15;12.30;;;7.93;;
59790;SDS011;47431;51.640;5.554;2023-02-28T07:18:41;13.87;;;7.40;;
59790;SDS011;47431;51.640;5.554;2023-02-28T07:21:07;10.70;;;7.03;;
59790;SDS011;47431;51.640;5.554;2023-02-28T07:23:33;10.67;;;7.23;;
59790;SDS011;47431;51.640;5.554;2023-02-28T07:25:58;11.00;;;7.57;;
59790;SDS011;47431;51.640;5.554;2023-02-28T07:28:24;9.23;;;7.20;;
59790;SDS011;47431;51.640;5.554;2023-02-28T07:30:49;10.57;;;7.80;;
59790;SDS011;47431;51.640;5.554;2023-02-28T07:33:15;11.00;;;7.13;;
59790;SDS011;47431;51.640;5.554;2023-02-28T07:35:40;12.13;;;7.47;;
59790;SDS011;47431;51.640;5.554;2023-02-28T07:38:06;14.47;;;7.30;;
59790;SDS011;47431;51.640;5.554;2023-02-28T07:40:33;14.40;;;8.53;;
59790;SDS011;47431;51.640;5.554;2023-02-28T07:42:58;13.53;;;8.47;;
59790;SDS011;47431;51.640;5.554;2023-02-28T07:45:24;15.73;;;8.00;;
59790;SDS011;47431;51.640;5.554;2023-02-28T07:47:49;11.80;;;7.90;;
59790;SDS011;47431;51.640;5.554;2023-02-28T07:50:14;13.17;;;8.70;;
59790;SDS011;47431;51.640;5.554;2023-02-28T07:52:40;12.23;;;7.83;;
59790;SDS011;47431;51.640;5.554;2023-02-28T07:55:06;10.70;;;6.37;;
59790;SDS011;47431;51.640;5.554;2023-02-28T07:57:32;10.97;;;7.30;;
59790;SDS011;47431;51.640;5.554;2023-02-28T07:59:57;9.60;;;6.33;;
59790;SDS011;47431;51.640;5.554;2023-02-28T08:02:22;11.77;;;8.00;;
59790;SDS011;47431;51.640;5.554;2023-02-28T08:04:48;11.83;;;6.70;;
59790;SDS011;47431;51.640;5.554;2023-02-28T08:07:14;9.47;;;6.37;;
59790;SDS011;47431;51.640;5.554;2023-02-28T08:09:39;7.97;;;4.07;;
59790;SDS011;47431;51.640;5.554;2023-02-28T08:12:05;6.20;;;3.65;;
59790;SDS011;47431;51.640;5.554;2023-02-28T08:14:30;7.13;;;3.78;;
59790;SDS011;47431;51.640;5.554;2023-02-28T08:16:55;5.72;;;2.88;;
59790;SDS011;47431;51.640;5.554;2023-02-28T08:19:21;5.20;;;2.80;;
59790;SDS011;47431;51.640;5.554;2023-02-28T08:21:46;5.50;;;2.50;;
59790;SDS011;47431;51.640;5.554;2023-02-28T08:24:11;5.82;;;3.35;;
59790;SDS011;47431;51.640;5.554;2023-02-28T08:26:36;7.40;;;2.70;;
59790;SDS011;47431;51.640;5.554;2023-02-28T08:29:02;5.57;;;3.08;;
59790;SDS011;47431;51.640;5.554;2023-02-28T08:31:27;6.75;;;3.25;;
59790;SDS011;47431;51.640;5.554;2023-02-28T08:33:52;5.30;;;2.92;;
59790;SDS011;47431;51.640;5.554;2023-02-28T08:36:18;5.85;;;2.95;;
59790;SDS011;47431;51.640;5.554;2023-02-28T08:38:43;5.50;;;2.95;;
59790;SDS011;47431;51.640;5.554;2023-02-28T08:41:10;5.88;;;3.13;;
59790;SDS011;47431;51.640;5.554;2023-02-28T08:43:36;7.00;;;3.20;;
59790;SDS011;47431;51.640;5.554;2023-02-28T08:46:01;5.55;;;3.30;;
59790;SDS011;47431;51.640;5.554;2023-02-28T08:48:27;5.47;;;2.85;;
59790;SDS011;47431;51.640;5.554;2023-02-28T08:53:21;6.70;;;3.00;;
59790;SDS011;47431;51.640;5.554;2023-02-28T08:55:46;5.82;;;3.30;;
59790;SDS011;47431;51.640;5.554;2023-02-28T08:58:11;8.75;;;2.92;;
59790;SDS011;47431;51.640;5.554;2023-02-28T09:00:36;5.93;;;3.20;;
59790;SDS011;47431;51.640;5.554;2023-02-28T09:03:02;4.63;;;2.50;;
59790;SDS011;47431;51.640;5.554;2023-02-28T09:05:27;4.88;;;2.97;;
59790;SDS011;47431;51.640;5.554;2023-02-28T09:07:54;6.55;;;3.28;;
59790;SDS011;47431;51.640;5.554;2023-02-28T09:10:19;6.03;;;2.58;;
59790;SDS011;47431;51.640;5.554;2023-02-28T09:12:44;4.82;;;2.60;;
59790;SDS011;47431;51.640;5.554;2023-02-28T09:15:11;5.05;;;2.33;;
59790;SDS011;47431;51.640;5.554;2023-02-28T09:17:36;5.25;;;2.30;;
59790;SDS011;47431;51.640;5.554;2023-02-28T09:20:02;6.10;;;2.10;;
59790;SDS011;47431;51.640;5.554;2023-02-28T09:22:27;5.63;;;2.70;;
59790;SDS011;47431;51.640;5.554;2023-02-28T09:24:52;5.97;;;2.92;;
59790;SDS011;47431;51.640;5.554;2023-02-28T09:27:17;4.53;;;2.40;;
59790;SDS011;47431;51.640;5.554;2023-02-28T09:29:43;4.97;;;2.80;;
59790;SDS011;47431;51.640;5.554;2023-02-28T09:32:08;6.32;;;2.50;;
59790;SDS011;47431;51.640;5.554;2023-02-28T09:34:33;4.40;;;2.05;;
59790;SDS011;47431;51.640;5.554;2023-02-28T09:36:59;24.25;;;3.17;;
59790;SDS011;47431;51.640;5.554;2023-02-28T09:39:24;4.43;;;2.50;;
59790;SDS011;47431;51.640;5.554;2023-02-28T09:41:51;6.38;;;2.85;;
59790;SDS011;47431;51.640;5.554;2023-02-28T09:44:22;4.82;;;2.35;;
59790;SDS011;47431;51.640;5.554;2023-02-28T09:46:51;4.35;;;1.88;;
59790;SDS011;47431;51.640;5.554;2023-02-28T09:49:19;5.85;;;2.45;;
59790;SDS011;47431;51.640;5.554;2023-02-28T09:54:15;4.07;;;1.90;;
59790;SDS011;47431;51.640;5.554;2023-02-28T09:56:44;5.60;;;2.30;;
59790;SDS011;47431;51.640;5.554;2023-02-28T09:59:14;5.68;;;2.72;;
59790;SDS011;47431;51.640;5.554;2023-02-28T10:01:57;4.55;;;2.20;;
59790;SDS011;47431;51.640;5.554;2023-02-28T10:06:52;4.75;;;2.30;;
59790;SDS011;47431;51.640;5.554;2023-02-28T10:09:22;5.00;;;2.40;;
59790;SDS011;47431;51.640;5.554;2023-02-28T10:11:50;5.10;;;2.58;;
59790;SDS011;47431;51.640;5.554;2023-02-28T10:14:21;5.18;;;2.42;;
59790;SDS011;47431;51.640;5.554;2023-02-28T10:16:54;5.38;;;2.20;;
59790;SDS011;47431;51.640;5.554;2023-02-28T10:19:30;5.30;;;2.40;;
59790;SDS011;47431;51.640;5.554;2023-02-28T10:22:01;5.50;;;2.47;;
59790;SDS011;47431;51.640;5.554;2023-02-28T10:26:56;4.10;;;2.10;;
59790;SDS011;47431;51.640;5.554;2023-02-28T10:29:23;4.15;;;2.00;;
59790;SDS011;47431;51.640;5.554;2023-02-28T10:31:48;7.10;;;2.22;;
59790;SDS011;47431;51.640;5.554;2023-02-28T10:34:13;6.15;;;2.15;;
59790;SDS011;47431;51.640;5.554;2023-02-28T10:36:39;4.38;;;2.25;;
59790;SDS011;47431;51.640;5.554;2023-02-28T10:41:48;3.53;;;1.80;;
59790;SDS011;47431;51.640;5.554;2023-02-28T10:44:16;3.53;;;1.90;;
59790;SDS011;47431;51.640;5.554;2023-02-28T10:46:43;5.72;;;2.40;;
59790;SDS011;47431;51.640;5.554;2023-02-28T10:49:17;4.30;;;2.22;;
59790;SDS011;47431;51.640;5.554;2023-02-28T10:51:44;4.07;;;2.10;;
59790;SDS011;47431;51.640;5.554;2023-02-28T10:54:16;4.13;;;2.05;;
59790;SDS011;47431;51.640;5.554;2023-02-28T10:56:43;4.70;;;2.03;;
59790;SDS011;47431;51.640;5.554;2023-02-28T11:03:58;4.80;;;2.40;;
59790;SDS011;47431;51.640;5.554;2023-02-28T11:06:31;4.57;;;2.33;;
59790;SDS011;47431;51.640;5.554;2023-02-28T11:09:00;7.63;;;2.03;;
59790;SDS011;47431;51.640;5.554;2023-02-28T11:11:28;6.05;;;2.20;;
59790;SDS011;47431;51.640;5.554;2023-02-28T11:13:57;7.10;;;2.40;;
59790;SDS011;47431;51.640;5.554;2023-02-28T11:16:34;4.30;;;2.35;;
59790;SDS011;47431;51.640;5.554;2023-02-28T11:19:00;5.35;;;2.50;;
59790;SDS011;47431;51.640;5.554;2023-02-28T11:21:27;4.40;;;1.90;;
59790;SDS011;47431;51.640;5.554;2023-02-28T11:24:01;4.10;;;1.92;;
59790;SDS011;47431;51.640;5.554;2023-02-28T11:26:46;4.95;;;2.10;;
59790;SDS011;47431;51.640;5.554;2023-02-28T11:29:21;4.43;;;2.20;;
59790;SDS011;47431;51.640;5.554;2023-02-28T11:32:03;6.07;;;2.25;;
59790;SDS011;47431;51.640;5.554;2023-02-28T11:34:28;6.38;;;2.28;;
59790;SDS011;47431;51.640;5.554;2023-02-28T11:36:54;4.72;;;2.22;;
59790;SDS011;47431;51.640;5.554;2023-02-28T11:39:21;4.95;;;2.45;;
59790;SDS011;47431;51.640;5.554;2023-02-28T11:46:59;6.55;;;2.45;;
59790;SDS011;47431;51.640;5.554;2023-02-28T11:49:34;5.47;;;2.47;;
59790;SDS011;47431;51.640;5.554;2023-02-28T11:57:19;5.10;;;2.08;;
59790;SDS011;47431;51.640;5.554;2023-02-28T11:59:51;6.85;;;2.35;;
59790;SDS011;47431;51.640;5.554;2023-02-28T12:10:26;4.50;;;2.28;;
59790;SDS011;47431;51.640;5.554;2023-02-28T12:16:13;4.15;;;2.20;;
59790;SDS011;47431;51.640;5.554;2023-02-28T12:20:44;4.63;;;2.47;;
59790;SDS011;47431;51.640;5.554;2023-02-28T12:25:54;4.32;;;2.58;;
59790;SDS011;47431;51.640;5.554;2023-02-28T12:28:23;7.55;;;2.30;;
59790;SDS011;47431;51.640;5.554;2023-02-28T12:30:56;4.43;;;2.25;;
59790;SDS011;47431;51.640;5.554;2023-02-28T12:33:24;7.50;;;3.03;;
59790;SDS011;47431;51.640;5.554;2023-02-28T12:35:52;7.30;;;3.20;;
59790;SDS011;47431;51.640;5.554;2023-02-28T12:38:34;4.90;;;2.97;;
59790;SDS011;47431;51.640;5.554;2023-02-28T12:41:03;5.00;;;2.70;;
59790;SDS011;47431;51.640;5.554;2023-02-28T12:43:32;6.50;;;3.30;;
59790;SDS011;47431;51.640;5.554;2023-02-28T12:45:59;5.32;;;2.58;;
59790;SDS011;47431;51.640;5.554;2023-02-28T12:48:46;5.28;;;3.15;;
59790;SDS011;47431;51.640;5.554;2023-02-28T12:51:12;6.38;;;3.00;;
59790;SDS011;47431;51.640;5.554;2023-02-28T12:59:44;5.80;;;3.05;;
59790;SDS011;47431;51.640;5.554;2023-02-28T13:10:15;5.07;;;2.33;;
59790;SDS011;47431;51.640;5.554;2023-02-28T13:12:48;6.28;;;2.90;;
59790;SDS011;47431;51.640;5.554;2023-02-28T13:15:24;9.40;;;3.03;;
59790;SDS011;47431;51.640;5.554;2023-02-28T13:17:50;8.05;;;3.25;;
59790;SDS011;47431;51.640;5.554;2023-02-28T13:20:18;5.35;;;3.03;;
59790;SDS011;47431;51.640;5.554;2023-02-28T13:22:44;5.32;;;2.65;;
59790;SDS011;47431;51.640;5.554;2023-02-28T13:27:51;5.95;;;2.85;;
59790;SDS011;47431;51.640;5.554;2023-02-28T13:34:04;6.55;;;2.92;;
59790;SDS011;47431;51.640;5.554;2023-02-28T13:38:35;7.20;;;2.53;;
59790;SDS011;47431;51.640;5.554;2023-02-28T13:43:58;5.25;;;2.67;;
59790;SDS011;47431;51.640;5.554;2023-02-28T13:46:24;6.63;;;2.70;;
59790;SDS011;47431;51.640;5.554;2023-02-28T13:48:49;14.95;;;3.42;;
59790;SDS011;47431;51.640;5.554;2023-02-28T13:54:21;8.07;;;3.55;;
59790;SDS011;47431;51.640;5.554;2023-02-28T13:57:04;5.40;;;3.25;;
59790;SDS011;47431;51.640;5.554;2023-02-28T13:59:42;8.52;;;3.65;;
59790;SDS011;47431;51.640;5.554;2023-02-28T14:05:01;5.57;;;3.08;;
59790;SDS011;47431;51.640;5.554;2023-02-28T14:07:38;6.07;;;3.35;;
59790;SDS011;47431;51.640;5.554;2023-02-28T14:10:07;6.25;;;3.05;;
59790;SDS011;47431;51.640;5.554;2023-02-28T14:12:52;9.65;;;3.38;;
59790;SDS011;47431;51.640;5.554;2023-02-28T14:17:53;6.40;;;3.20;;
59790;SDS011;47431;51.640;5.554;2023-02-28T14:20:20;6.03;;;3.78;;
59790;SDS011;47431;51.640;5.554;2023-02-28T14:25:23;5.70;;;3.47;;
59790;SDS011;47431;51.640;5.554;2023-02-28T14:30:26;5.07;;;2.88;;
59790;SDS011;47431;51.640;5.554;2023-02-28T14:38:30;5.97;;;3.65;;
59790;SDS011;47431;51.640;5.554;2023-02-28T14:40:56;8.05;;;3.88;;
59790;SDS011;47431;51.640;5.554;2023-02-28T14:43:25;5.75;;;3.30;;
59790;SDS011;47431;51.640;5.554;2023-02-28T14:45:52;6.93;;;3.53;;
59790;SDS011;47431;51.640;5.554;2023-02-28T14:48:18;4.90;;;3.00;;
59790;SDS011;47431;51.640;5.554;2023-02-28T14:50:48;6.82;;;4.18;;
59790;SDS011;47431;51.640;5.554;2023-02-28T14:53:21;8.52;;;3.67;;
59790;SDS011;47431;51.640;5.554;2023-02-28T14:55:47;8.27;;;3.38;;
59790;SDS011;47431;51.640;5.554;2023-02-28T14:58:20;6.22;;;2.92;;
59790;SDS011;47431;51.640;5.554;2023-02-28T15:00:47;5.80;;;3.65;;
59790;SDS011;47431;51.640;5.554;2023-02-28T15:03:18;9.13;;;3.53;;
59790;SDS011;47431;51.640;5.554;2023-02-28T15:05:50;6.55;;;4.47;;
59790;SDS011;47431;51.640;5.554;2023-02-28T15:08:16;6.68;;;3.92;;
59790;SDS011;47431;51.640;5.554;2023-02-28T15:10:51;6.18;;;3.22;;
59790;SDS011;47431;51.640;5.554;2023-02-28T15:13:17;5.53;;;2.72;;
59790;SDS011;47431;51.640;5.554;2023-02-28T15:15:56;6.72;;;4.03;;
59790;SDS011;47431;51.640;5.554;2023-02-28T15:21:29;8.32;;;2.88;;
59790;SDS011;47431;51.640;5.554;2023-02-28T15:23:56;5.53;;;3.63;;
59790;SDS011;47431;51.640;5.554;2023-02-28T15:26:26;5.82;;;3.40;;
59790;SDS011;47431;51.640;5.554;2023-02-28T15:28:54;7.32;;;3.03;;
59790;SDS011;47431;51.640;5.554;2023-02-28T15:32:05;5.75;;;3.47;;
59790;SDS011;47431;51.640;5.554;2023-02-28T15:34:18;7.55;;;3.65;;
59790;SDS011;47431;51.640;5.554;2023-02-28T15:36:44;6.00;;;3.20;;
59790;SDS011;47431;51.640;5.554;2023-02-28T15:39:20;6.90;;;3.47;;
59790;SDS011;47431;51.640;5.554;2023-02-28T15:41:46;6.70;;;3.35;;
59790;SDS011;47431;51.640;5.554;2023-02-28T15:44:23;5.55;;;3.50;;
59790;SDS011;47431;51.640;5.554;2023-02-28T15:46:55;6.20;;;3.60;;
59790;SDS011;47431;51.640;5.554;2023-02-28T15:49:21;5.88;;;3.28;;
59790;SDS011;47431;51.640;5.554;2023-02-28T15:51:48;6.63;;;3.40;;
59790;SDS011;47431;51.640;5.554;2023-02-28T15:54:15;10.60;;;3.45;;
59790;SDS011;47431;51.640;5.554;2023-02-28T15:56:43;6.78;;;3.30;;
59790;SDS011;47431;51.640;5.554;2023-02-28T15:59:20;12.50;;;3.75;;
59790;SDS011;47431;51.640;5.554;2023-02-28T16:01:46;5.60;;;2.97;;
59790;SDS011;47431;51.640;5.554;2023-02-28T16:04:18;7.63;;;3.78;;
59790;SDS011;47431;51.640;5.554;2023-02-28T16:07:00;6.15;;;3.28;;
59790;SDS011;47431;51.640;5.554;2023-02-28T16:09:25;5.17;;;3.30;;
59790;SDS011;47431;51.640;5.554;2023-02-28T16:11:52;7.88;;;3.60;;
59790;SDS011;47431;51.640;5.554;2023-02-28T16:14:19;5.88;;;3.95;;
59790;SDS011;47431;51.640;5.554;2023-02-28T16:16:46;7.15;;;3.83;;
59790;SDS011;47431;51.640;5.554;2023-02-28T16:19:11;7.72;;;3.50;;
59790;SDS011;47431;51.640;5.554;2023-02-28T16:21:37;10.05;;;3.38;;
59790;SDS011;47431;51.640;5.554;2023-02-28T16:24:02;5.70;;;3.50;;
59790;SDS011;47431;51.640;5.554;2023-02-28T16:26:27;7.30;;;3.80;;
59790;SDS011;47431;51.640;5.554;2023-02-28T16:28:53;9.85;;;4.68;;
59790;SDS011;47431;51.640;5.554;2023-02-28T16:31:18;12.27;;;6.95;;
59790;SDS011;47431;51.640;5.554;2023-02-28T16:33:44;9.60;;;3.97;;
59790;SDS011;47431;51.640;5.554;2023-02-28T16:36:13;22.33;;;11.73;;
59790;SDS011;47431;51.640;5.554;2023-02-28T16:38:39;5.10;;;3.40;;
59790;SDS011;47431;51.640;5.554;2023-02-28T16:41:04;7.25;;;3.72;;
59790;SDS011;47431;51.640;5.554;2023-02-28T16:43:30;6.80;;;3.72;;
59790;SDS011;47431;51.640;5.554;2023-02-28T16:45:55;6.65;;;4.07;;
59790;SDS011;47431;51.640;5.554;2023-02-28T16:48:24;6.75;;;3.80;;